createdAt,value
2017-05-30T00:01:03.245Z,100381.14
2017-05-30T00:03:29.790Z,100376.00
2017-05-30T00:05:56.138Z,100376.03
2017-05-30T00:08:22.534Z,100374.80
2017-05-30T00:10:48.874Z,100378.36
2017-05-30T00:13:15.247Z,100377.89
2017-05-30T00:15:41.589Z,100371.22
2017-05-30T00:18:08.586Z,100366.96
2017-05-30T00:20:35.104Z,100370.30
2017-05-30T00:23:01.933Z,100380.25
2017-05-30T00:25:29.021Z,100382.70
2017-05-30T00:27:55.585Z,100380.75
2017-05-30T00:30:21.992Z,100370.69
2017-05-30T00:32:48.576Z,100352.55
2017-05-30T00:35:14.954Z,100338.77
2017-05-30T00:37:41.302Z,100337.62
2017-05-30T00:40:07.651Z,100331.38
2017-05-30T00:42:34.077Z,100321.75
2017-05-30T00:45:00.445Z,100337.80
2017-05-30T00:47:26.787Z,100354.88
2017-05-30T00:49:53.174Z,100367.26
2017-05-30T00:52:19.528Z,100365.45
2017-05-30T00:54:45.872Z,100374.62
2017-05-30T00:57:12.248Z,100396.39
2017-05-30T00:59:38.601Z,100385.73
2017-05-30T01:02:04.957Z,100374.20
2017-05-30T01:04:31.300Z,100393.53
2017-05-30T01:06:57.639Z,100410.80
2017-05-30T01:09:23.973Z,100429.94
2017-05-30T01:11:50.337Z,100438.30
2017-05-30T01:14:16.676Z,100433.06
2017-05-30T01:16:43.008Z,100415.44
2017-05-30T01:19:09.406Z,100414.61
2017-05-30T01:21:35.769Z,100411.40
2017-05-30T01:24:02.132Z,100417.17
2017-05-30T01:26:28.486Z,100408.27
2017-05-30T01:28:54.810Z,100402.88
2017-05-30T01:31:21.675Z,100421.64
2017-05-30T01:33:53.205Z,100413.47
2017-05-30T01:36:19.641Z,100403.99
2017-05-30T01:38:49.064Z,100409.08
2017-05-30T01:41:15.668Z,100423.65
2017-05-30T01:43:47.610Z,100421.38
2017-05-30T01:46:14.068Z,100409.95
2017-05-30T01:48:45.966Z,100418.28
2017-05-30T01:51:12.557Z,100423.64
2017-05-30T01:53:39.327Z,100414.31
2017-05-30T01:56:05.683Z,100421.58
2017-05-30T01:58:33.635Z,100424.72
2017-05-30T02:01:01.109Z,100421.28
2017-05-30T02:03:33.196Z,100428.59
2017-05-30T02:06:04.800Z,100419.08
2017-05-30T02:08:31.629Z,100425.59
2017-05-30T02:10:58.073Z,100415.45
2017-05-30T02:13:25.280Z,100412.45
2017-05-30T02:15:56.961Z,100426.47
2017-05-30T02:18:23.507Z,100431.45
2017-05-30T02:20:49.943Z,100433.67
2017-05-30T02:23:19.426Z,100442.94
2017-05-30T02:25:45.955Z,100438.27
2017-05-30T02:28:12.466Z,100437.63
2017-05-30T02:30:45.764Z,100433.73
2017-05-30T02:33:12.323Z,100438.88
2017-05-30T02:35:39.114Z,100439.28
2017-05-30T02:38:10.624Z,100441.61
2017-05-30T02:40:42.126Z,100437.03
2017-05-30T02:43:08.756Z,100437.81
2017-05-30T02:45:40.207Z,100435.53
2017-05-30T02:48:07.920Z,100434.70
2017-05-30T02:50:40.787Z,100438.84
2017-05-30T02:53:07.651Z,100438.34
2017-05-30T02:55:34.429Z,100437.78
2017-05-30T02:58:00.994Z,100442.20
2017-05-30T03:00:27.516Z,100445.59
2017-05-30T03:02:53.918Z,100444.66
2017-05-30T03:05:23.399Z,100454.46
2017-05-30T03:07:49.746Z,100453.36
2017-05-30T03:10:16.565Z,100465.77
2017-05-30T03:12:42.985Z,100463.42
2017-05-30T03:15:12.813Z,100459.25
2017-05-30T03:17:40.291Z,100457.70
2017-05-30T03:20:11.963Z,100461.23
2017-05-30T03:22:44.326Z,100456.26
2017-05-30T03:25:10.814Z,100466.91
2017-05-30T03:27:42.820Z,100469.38
2017-05-30T03:30:09.635Z,100471.98
2017-05-30T03:32:41.325Z,100457.59
2017-05-30T03:35:08.121Z,100463.48
2017-05-30T03:37:34.850Z,100474.73
2017-05-30T03:40:06.741Z,100486.69
2017-05-30T03:42:34.034Z,100491.26
2017-05-30T03:45:00.436Z,100483.84
2017-05-30T03:47:31.974Z,100485.83
2017-05-30T03:49:58.681Z,100493.70
2017-05-30T03:52:25.069Z,100496.67
2017-05-30T03:54:54.705Z,100492.52
2017-05-30T03:57:21.057Z,100493.55
2017-05-30T03:59:48.396Z,100494.22
2017-05-30T04:02:14.807Z,100502.63
2017-05-30T04:04:46.514Z,100504.51
2017-05-30T04:07:13.410Z,100501.37
2017-05-30T04:09:45.051Z,100502.55
2017-05-30T04:12:11.380Z,100503.25
2017-05-30T04:14:43.094Z,100502.95
2017-05-30T04:17:14.595Z,100502.46
2017-05-30T04:19:41.568Z,100506.52
2017-05-30T04:22:07.953Z,100502.28
2017-05-30T04:24:35.270Z,100498.03
2017-05-30T04:27:02.431Z,100503.64
2017-05-30T04:29:28.907Z,100504.41
2017-05-30T04:31:55.332Z,100500.55
2017-05-30T04:34:29.613Z,100505.20
2017-05-30T04:37:01.423Z,100513.39
2017-05-30T04:39:27.933Z,100513.34
2017-05-30T04:41:59.473Z,100521.51
2017-05-30T04:44:25.834Z,100522.95
2017-05-30T04:46:58.119Z,100514.19
2017-05-30T04:49:24.869Z,100516.75
2017-05-30T04:51:51.750Z,100516.88
2017-05-30T04:54:23.114Z,100508.61
2017-05-30T04:56:49.521Z,100513.95
2017-05-30T04:59:15.966Z,100522.02
2017-05-30T05:01:47.557Z,100523.84
2017-05-30T05:04:20.086Z,100527.58
2017-05-30T05:06:50.570Z,100524.39
2017-05-30T05:09:16.996Z,100523.89
2017-05-30T05:11:48.831Z,100525.92
2017-05-30T05:14:20.482Z,100530.88
2017-05-30T05:16:46.925Z,100527.41
2017-05-30T05:19:16.247Z,100526.33
2017-05-30T05:21:42.904Z,100521.97
2017-05-30T05:24:09.404Z,100524.30
2017-05-30T05:26:41.074Z,100535.73
2017-05-30T05:29:07.936Z,100531.70
2017-05-30T05:31:35.543Z,100538.92
2017-05-30T05:34:07.255Z,100538.38
2017-05-30T05:36:33.696Z,100541.50
2017-05-30T05:39:03.468Z,100544.41
2017-05-30T05:41:30.329Z,100548.09
2017-05-30T05:43:57.714Z,100551.97
2017-05-30T05:46:24.052Z,100552.39
2017-05-30T05:48:50.376Z,100566.63
2017-05-30T05:51:16.734Z,100558.74
2017-05-30T05:53:43.092Z,100557.38
2017-05-30T05:56:09.445Z,100564.09
2017-05-30T05:58:35.773Z,100576.52
2017-05-30T06:01:02.132Z,100577.36
2017-05-30T06:03:28.498Z,100576.55
2017-05-30T06:05:54.867Z,100587.11
2017-05-30T06:08:21.219Z,100588.50
2017-05-30T06:10:47.579Z,100595.83
2017-05-30T06:13:13.944Z,100597.66
2017-05-30T06:15:40.390Z,100593.66
2017-05-30T06:18:06.740Z,100595.98
2017-05-30T06:20:33.058Z,100597.92
2017-05-30T06:22:59.399Z,100597.30
2017-05-30T06:25:25.757Z,100595.28
2017-05-30T06:27:52.162Z,100592.72
2017-05-30T06:30:18.532Z,100591.17
2017-05-30T06:32:44.883Z,100586.72
2017-05-30T06:35:11.232Z,100584.07
2017-05-30T06:37:37.649Z,100590.16
2017-05-30T06:40:03.974Z,100591.30
2017-05-30T06:42:30.356Z,100594.35
2017-05-30T06:44:56.725Z,100590.07
2017-05-30T06:47:23.059Z,100601.53
2017-05-30T06:49:49.396Z,100599.14
2017-05-30T06:52:15.812Z,100594.20
2017-05-30T06:54:42.134Z,100597.34
2017-05-30T06:57:08.495Z,100607.23
2017-05-30T06:59:34.823Z,100602.04
2017-05-30T07:02:01.171Z,100603.91
2017-05-30T07:04:27.517Z,100601.56
2017-05-30T07:06:53.881Z,100607.20
2017-05-30T07:09:20.214Z,100608.33
2017-05-30T07:11:46.553Z,100612.73
2017-05-30T07:14:12.926Z,100610.89
2017-05-30T07:16:39.309Z,100607.81
2017-05-30T07:19:05.675Z,100607.15
2017-05-30T07:21:32.029Z,100607.97
2017-05-30T07:23:58.378Z,100612.56
2017-05-30T07:26:24.719Z,100604.88
2017-05-30T07:28:51.076Z,100604.58
2017-05-30T07:31:17.421Z,100610.81
2017-05-30T07:33:43.770Z,100616.05
2017-05-30T07:36:10.171Z,100618.64
2017-05-30T07:38:36.510Z,100618.57
2017-05-30T07:41:02.872Z,100620.84
2017-05-30T07:43:29.225Z,100624.55
2017-05-30T07:45:55.575Z,100623.73
2017-05-30T07:48:21.919Z,100618.95
2017-05-30T07:50:48.259Z,100617.81
2017-05-30T07:53:14.599Z,100617.23
2017-05-30T07:55:40.995Z,100618.88
2017-05-30T07:58:07.398Z,100615.11
2017-05-30T08:00:33.793Z,100603.75
2017-05-30T08:03:00.189Z,100603.36
2017-05-30T08:05:26.597Z,100601.88
2017-05-30T08:07:53.044Z,100607.77
2017-05-30T08:10:19.406Z,100599.95
2017-05-30T08:12:45.787Z,100609.27
2017-05-30T08:15:12.116Z,100611.23
2017-05-30T08:17:38.542Z,100615.13
2017-05-30T08:20:04.893Z,100616.42
2017-05-30T08:22:31.249Z,100609.71
2017-05-30T08:24:57.613Z,100611.33
2017-05-30T08:27:24.019Z,100609.29
2017-05-30T08:29:50.375Z,100608.16
2017-05-30T08:32:16.729Z,100609.45
2017-05-30T08:34:58.007Z,100607.34
2017-05-30T08:37:24.365Z,100609.27
2017-05-30T08:39:50.688Z,100608.16
2017-05-30T08:42:17.032Z,100607.52
2017-05-30T08:44:43.364Z,100604.83
2017-05-30T08:47:09.725Z,100610.72
2017-05-30T08:49:36.102Z,100614.13
2017-05-30T08:52:02.462Z,100615.70
2017-05-30T08:54:28.814Z,100610.47
2017-05-30T08:56:55.169Z,100609.48
2017-05-30T08:59:21.514Z,100612.91
2017-05-30T09:01:47.839Z,100622.23
2017-05-30T09:04:14.172Z,100623.51
2017-05-30T09:06:40.510Z,100623.41
2017-05-30T09:09:06.894Z,100629.34
2017-05-30T09:11:33.273Z,100630.79
2017-05-30T09:13:59.660Z,100627.77
2017-05-30T09:16:25.998Z,100623.42
2017-05-30T09:18:52.385Z,100621.52
2017-05-30T09:21:18.747Z,100620.96
2017-05-30T09:23:45.167Z,100618.25
2017-05-30T09:26:11.538Z,100630.81
2017-05-30T09:28:37.927Z,100630.67
2017-05-30T09:31:04.473Z,100631.31
2017-05-30T09:33:30.878Z,100634.69
2017-05-30T09:35:57.904Z,100633.30
2017-05-30T09:38:24.266Z,100641.17
2017-05-30T09:40:50.975Z,100638.28
2017-05-30T09:43:17.417Z,100651.13
2017-05-30T09:45:43.766Z,100650.20
2017-05-30T09:48:10.129Z,100642.66
2017-05-30T09:50:36.443Z,100642.20
2017-05-30T09:53:02.782Z,100640.97
2017-05-30T09:55:29.114Z,100638.67
2017-05-30T09:57:55.464Z,100644.63
2017-05-30T10:00:21.801Z,100646.00
2017-05-30T10:02:48.128Z,100632.29
2017-05-30T10:05:14.483Z,100634.48
2017-05-30T10:07:40.857Z,100631.89
2017-05-30T10:10:07.233Z,100638.63
2017-05-30T10:12:33.549Z,100638.68
2017-05-30T10:14:59.871Z,100640.31
2017-05-30T10:17:26.230Z,100645.42
2017-05-30T10:19:52.549Z,100644.72
2017-05-30T10:22:18.893Z,100627.37
2017-05-30T10:24:45.230Z,100630.50
2017-05-30T10:27:11.559Z,100624.73
2017-05-30T10:29:37.859Z,100631.80
2017-05-30T10:32:04.244Z,100634.23
2017-05-30T10:34:30.567Z,100620.62
2017-05-30T10:36:56.936Z,100610.11
2017-05-30T10:39:23.330Z,100603.28
2017-05-30T10:41:49.648Z,100598.95
2017-05-30T10:44:16.052Z,100598.41
2017-05-30T10:46:42.890Z,100597.41
2017-05-30T10:49:09.275Z,100599.16
2017-05-30T10:51:35.625Z,100602.52
2017-05-30T10:54:01.977Z,100596.30
2017-05-30T10:56:28.319Z,100592.92
2017-05-30T10:58:54.692Z,100596.33
2017-05-30T11:01:21.027Z,100597.47
2017-05-30T11:03:47.399Z,100586.84
2017-05-30T11:06:13.707Z,100613.02
2017-05-30T11:08:40.048Z,100634.39
2017-05-30T11:11:06.400Z,100631.62
2017-05-30T11:13:32.746Z,100633.11
2017-05-30T11:15:59.063Z,100640.78
2017-05-30T11:18:25.410Z,100635.59
2017-05-30T11:20:51.737Z,100639.25
2017-05-30T11:23:18.114Z,100633.06
2017-05-30T11:25:44.447Z,100634.98
2017-05-30T11:28:10.758Z,100635.67
2017-05-30T11:30:37.090Z,100631.03
2017-05-30T11:33:03.607Z,100628.08
2017-05-30T11:35:29.944Z,100630.96
2017-05-30T11:37:56.273Z,100628.28
2017-05-30T11:40:22.629Z,100622.36
2017-05-30T11:42:48.932Z,100628.29
2017-05-30T11:45:15.733Z,100620.45
2017-05-30T11:47:42.079Z,100624.36
2017-05-30T11:50:08.463Z,100614.77
2017-05-30T11:52:34.796Z,100605.63
2017-05-30T11:55:01.127Z,100607.28
2017-05-30T11:57:27.463Z,100608.09
2017-05-30T11:59:53.945Z,100606.89
2017-05-30T12:02:20.289Z,100596.91
2017-05-30T12:04:46.655Z,100597.42
2017-05-30T12:07:13.022Z,100605.61
2017-05-30T12:09:39.379Z,100607.00
2017-05-30T12:12:05.765Z,100595.63
2017-05-30T12:14:32.119Z,100606.73
2017-05-30T12:16:58.460Z,100612.33
2017-05-30T12:19:24.805Z,100606.34
2017-05-30T12:21:51.123Z,100612.09
2017-05-30T12:24:17.449Z,100615.14
2017-05-30T12:26:43.808Z,100609.91
2017-05-30T12:29:10.169Z,100610.15
2017-05-30T12:31:36.520Z,100611.87
2017-05-30T12:34:02.874Z,100605.91
2017-05-30T12:36:29.197Z,100599.97
2017-05-30T12:38:55.546Z,100604.59
2017-05-30T12:41:21.891Z,100611.62
2017-05-30T12:43:48.249Z,100632.36
2017-05-30T12:46:14.605Z,100631.65
2017-05-30T12:48:40.955Z,100636.70
2017-05-30T12:51:07.278Z,100641.44
2017-05-30T12:53:33.626Z,100635.16
2017-05-30T12:56:00.030Z,100642.34
2017-05-30T12:58:26.379Z,100641.17
2017-05-30T13:00:52.743Z,100647.92
2017-05-30T13:03:19.102Z,100640.00
2017-05-30T13:05:45.464Z,100638.81
2017-05-30T13:08:11.803Z,100637.71
2017-05-30T13:10:38.159Z,100644.80
2017-05-30T13:13:04.491Z,100643.80
2017-05-30T13:15:30.823Z,100654.26
2017-05-30T13:17:57.159Z,100652.66
2017-05-30T13:20:23.522Z,100647.16
2017-05-30T13:22:49.877Z,100649.73
2017-05-30T13:25:16.221Z,100647.94
2017-05-30T13:27:42.563Z,100647.44
2017-05-30T13:30:08.908Z,100656.31
2017-05-30T13:32:35.293Z,100653.16
2017-05-30T13:35:01.644Z,100652.64
2017-05-30T13:37:27.979Z,100655.64
2017-05-30T13:39:54.311Z,100664.05
2017-05-30T13:42:20.649Z,100664.53
2017-05-30T13:44:46.981Z,100663.40
2017-05-30T13:47:13.288Z,100659.39
2017-05-30T13:49:39.620Z,100654.20
2017-05-30T13:52:05.970Z,100650.20
2017-05-30T13:54:32.280Z,100653.84
2017-05-30T13:56:58.661Z,100658.09
2017-05-30T13:59:25.013Z,100653.41
2017-05-30T14:01:51.381Z,100653.63
2017-05-30T14:04:17.745Z,100645.69
2017-05-30T14:06:44.115Z,100655.44
2017-05-30T14:09:10.460Z,100657.70
2017-05-30T14:11:36.798Z,100662.28
2017-05-30T14:14:03.158Z,100657.20
2017-05-30T14:16:29.467Z,100659.05
2017-05-30T14:18:55.797Z,100654.80
2017-05-30T14:21:22.141Z,100648.75
2017-05-30T14:23:48.475Z,100643.48
2017-05-30T14:26:14.845Z,100647.05
2017-05-30T14:28:41.191Z,100642.45
2017-05-30T14:31:07.511Z,100638.22
2017-05-30T14:33:33.850Z,100647.99
2017-05-30T14:36:00.191Z,100646.94
2017-05-30T14:38:26.550Z,100644.09
2017-05-30T14:40:52.909Z,100644.56
2017-05-30T14:43:19.270Z,100638.73
2017-05-30T14:45:45.580Z,100627.94
2017-05-30T14:48:11.913Z,100628.83
2017-05-30T14:50:38.257Z,100634.69
2017-05-30T14:53:04.581Z,100619.91
2017-05-30T14:55:30.924Z,100618.42
2017-05-30T14:57:57.245Z,100622.58
2017-05-30T15:00:23.599Z,100616.88
2017-05-30T15:02:49.938Z,100619.61
2017-05-30T15:05:16.293Z,100624.03
2017-05-30T15:07:42.647Z,100620.40
2017-05-30T15:10:09.030Z,100618.14
2017-05-30T15:12:35.958Z,100621.31
2017-05-30T15:15:02.330Z,100624.11
2017-05-30T15:17:28.661Z,100626.55
2017-05-30T15:19:55.072Z,100631.72
2017-05-30T15:22:21.401Z,100630.22
2017-05-30T15:24:47.734Z,100630.58
2017-05-30T15:27:14.180Z,100628.95
2017-05-30T15:29:40.564Z,100634.01
2017-05-30T15:32:06.901Z,100628.86
2017-05-30T15:34:33.241Z,100630.10
2017-05-30T15:36:59.584Z,100624.63
2017-05-30T15:39:26.447Z,100622.63
2017-05-30T15:41:53.963Z,100627.34
2017-05-30T15:44:20.348Z,100631.22
2017-05-30T15:46:46.869Z,100627.17
2017-05-30T15:49:13.548Z,100625.92
2017-05-30T15:51:40.303Z,100630.63
2017-05-30T15:54:06.854Z,100635.46
2017-05-30T15:56:33.678Z,100638.37
2017-05-30T15:59:00.231Z,100643.70
2017-05-30T16:01:27.107Z,100646.73
2017-05-30T16:03:53.467Z,100647.44
2017-05-30T16:06:21.322Z,100649.91
2017-05-30T16:08:48.529Z,100658.14
2017-05-30T16:11:15.680Z,100661.03
2017-05-30T16:13:42.867Z,100664.33
2017-05-30T16:16:09.878Z,100662.11
2017-05-30T16:18:36.963Z,100664.41
2017-05-30T16:21:03.369Z,100664.87
2017-05-30T16:23:30.552Z,100666.46
2017-05-30T16:25:56.942Z,100663.20
2017-05-30T16:28:23.980Z,100663.03
2017-05-30T16:30:50.393Z,100664.17
2017-05-30T16:33:17.494Z,100668.91
2017-05-30T16:35:44.476Z,100673.63
2017-05-30T16:38:10.871Z,100671.86
2017-05-30T16:40:37.657Z,100671.61
2017-05-30T16:43:04.368Z,100669.90
2017-05-30T16:45:30.895Z,100674.50
2017-05-30T16:47:57.911Z,100676.53
2017-05-30T16:50:26.337Z,100680.99
2017-05-30T16:52:52.907Z,100687.41
2017-05-30T16:55:19.739Z,100689.50
2017-05-30T16:57:46.211Z,100696.95
2017-05-30T17:00:12.687Z,100702.59
2017-05-30T17:02:39.019Z,100700.23
2017-05-30T17:05:05.384Z,100704.06
2017-05-30T17:07:31.798Z,100699.78
2017-05-30T17:09:58.144Z,100706.67
2017-05-30T17:12:24.503Z,100714.55
2017-05-30T17:14:50.852Z,100711.96
2017-05-30T17:17:17.292Z,100713.20
2017-05-30T17:19:43.655Z,100718.41
2017-05-30T17:22:09.993Z,100718.42
2017-05-30T17:24:36.350Z,100728.97
2017-05-30T17:27:02.711Z,100727.48
2017-05-30T17:29:29.351Z,100729.83
2017-05-30T17:31:55.899Z,100730.52
2017-05-30T17:34:22.780Z,100733.91
2017-05-30T17:36:49.179Z,100729.27
2017-05-30T17:39:15.576Z,100731.64
2017-05-30T17:41:42.691Z,100738.31
2017-05-30T17:44:09.044Z,100745.96
2017-05-30T17:46:35.875Z,100751.32
2017-05-30T17:49:02.252Z,100750.22
2017-05-30T17:51:29.449Z,100755.85
2017-05-30T17:53:55.858Z,100746.81
2017-05-30T17:56:22.194Z,100760.58
2017-05-30T17:58:48.519Z,100760.64
2017-05-30T18:01:14.876Z,100756.97
2017-05-30T18:03:41.203Z,100758.00
2017-05-30T18:06:07.495Z,100770.13
2017-05-30T18:08:33.830Z,100776.58
2017-05-30T18:11:00.159Z,100782.58
2017-05-30T18:13:26.521Z,100786.84
2017-05-30T18:15:52.915Z,100789.13
2017-05-30T18:18:19.978Z,100802.59
2017-05-30T18:20:46.869Z,100800.87
2017-05-30T18:23:14.105Z,100803.09
2017-05-30T18:25:41.224Z,100807.91
2017-05-30T18:28:07.735Z,100811.59
2017-05-30T18:30:34.791Z,100813.88
2017-05-30T18:33:01.162Z,100813.29
2017-05-30T18:35:28.119Z,100821.73
2017-05-30T18:37:54.497Z,100824.73
2017-05-30T18:40:20.906Z,100827.77
2017-05-30T18:42:47.599Z,100831.77
2017-05-30T18:45:13.987Z,100837.25
2017-05-30T18:47:40.332Z,100844.77
2017-05-30T18:50:06.718Z,100850.90
2017-05-30T18:52:33.062Z,100858.56
2017-05-30T18:54:59.484Z,100867.06
2017-05-30T18:57:25.823Z,100868.00
2017-05-30T18:59:52.350Z,100872.48
2017-05-30T19:02:18.765Z,100874.72
2017-05-30T19:04:45.137Z,100881.77
2017-05-30T19:07:12.210Z,100883.45
2017-05-30T19:09:38.651Z,100885.88
2017-05-30T19:12:05.034Z,100893.09
2017-05-30T19:14:31.390Z,100896.98
2017-05-30T19:16:57.760Z,100891.82
2017-05-30T19:19:24.089Z,100906.01
2017-05-30T19:21:50.446Z,100901.20
2017-05-30T19:24:16.807Z,100910.11
2017-05-30T19:26:43.700Z,100910.50
2017-05-30T19:29:10.238Z,100916.00
2017-05-30T19:31:36.773Z,100920.50
2017-05-30T19:34:03.168Z,100928.11
2017-05-30T19:36:29.630Z,100929.14
2017-05-30T19:38:56.345Z,100931.33
2017-05-30T19:41:23.317Z,100938.07
2017-05-30T19:43:49.813Z,100943.52
2017-05-30T19:46:16.160Z,100938.55
2017-05-30T19:48:43.261Z,100946.77
2017-05-30T19:51:09.677Z,100957.61
2017-05-30T19:53:36.027Z,100956.48
2017-05-30T19:56:02.367Z,100966.36
2017-05-30T19:58:28.703Z,100970.48
2017-05-30T20:00:55.092Z,100976.98
2017-05-30T20:03:21.500Z,100974.00
2017-05-30T20:05:47.855Z,100981.92
2017-05-30T20:08:14.229Z,100991.98
2017-05-30T20:10:40.618Z,100993.49
2017-05-30T20:13:06.948Z,100995.66
2017-05-30T20:15:33.341Z,100997.95
2017-05-30T20:18:00.495Z,101004.39
2017-05-30T20:20:27.199Z,101005.61
2017-05-30T20:22:53.648Z,101004.73
2017-05-30T20:25:20.750Z,101016.50
2017-05-30T20:27:47.117Z,101012.00
2017-05-30T20:30:13.515Z,101017.95
2017-05-30T20:32:39.845Z,101022.63
2017-05-30T20:35:06.216Z,101024.97
2017-05-30T20:37:32.653Z,101029.25
2017-05-30T20:39:59.026Z,101032.80
2017-05-30T20:42:25.470Z,101036.59
2017-05-30T20:44:51.834Z,101041.56
2017-05-30T20:47:18.179Z,101046.23
2017-05-30T20:49:44.582Z,101048.02
2017-05-30T20:52:10.959Z,101049.47
2017-05-30T20:54:37.320Z,101058.41
2017-05-30T20:57:04.271Z,101053.36
2017-05-30T20:59:30.655Z,101056.66
2017-05-30T21:01:57.023Z,101051.56
2017-05-30T21:04:23.346Z,101048.96
2017-05-30T21:06:49.694Z,101057.66
2017-05-30T21:09:16.129Z,101050.77
2017-05-30T21:11:42.456Z,101054.50
2017-05-30T21:14:08.798Z,101059.67
2017-05-30T21:16:35.148Z,101054.25
2017-05-30T21:19:02.737Z,101054.91
2017-05-30T21:21:29.115Z,101062.50
2017-05-30T21:23:55.444Z,101065.36
2017-05-30T21:26:21.828Z,101062.40
2017-05-30T21:28:48.151Z,101061.87
2017-05-30T21:31:14.543Z,101061.52
2017-05-30T21:33:40.896Z,101066.63
2017-05-30T21:36:07.235Z,101073.02
2017-05-30T21:38:33.645Z,101067.17
2017-05-30T21:41:00.005Z,101079.29
2017-05-30T21:43:26.326Z,101078.28
2017-05-30T21:45:52.751Z,101091.72
2017-05-30T21:48:19.084Z,101091.00
2017-05-30T21:50:45.419Z,101090.84
2017-05-30T21:53:11.796Z,101093.48
2017-05-30T21:55:38.190Z,101096.41
2017-05-30T21:58:04.518Z,101102.33
2017-05-30T22:00:30.837Z,101100.77
2017-05-30T22:02:58.335Z,101101.75
2017-05-30T22:05:24.719Z,101102.77
2017-05-30T22:07:51.082Z,101114.70
2017-05-30T22:10:17.408Z,101106.59
2017-05-30T22:12:43.753Z,101107.41
2017-05-30T22:15:10.087Z,101097.32
2017-05-30T22:17:36.549Z,101113.05
2017-05-30T22:20:02.986Z,101107.34
2017-05-30T22:22:29.335Z,101118.09
2017-05-30T22:24:55.670Z,101124.09
2017-05-30T22:27:22.000Z,101118.52
2017-05-30T22:29:48.369Z,101119.98
2017-05-30T22:32:14.694Z,101120.03
2017-05-30T22:34:41.013Z,101110.34
2017-05-30T22:37:07.347Z,101117.97
2017-05-30T22:39:33.719Z,101120.70
2017-05-30T22:42:00.058Z,101121.27
2017-05-30T22:44:26.403Z,101123.49
2017-05-30T22:46:52.753Z,101121.42
2017-05-30T22:49:19.129Z,101120.42
2017-05-30T22:51:45.453Z,101124.48
2017-05-30T22:54:11.773Z,101120.80
2017-05-30T22:56:38.202Z,101121.99
2017-05-30T22:59:04.520Z,101118.59
2017-05-30T23:01:30.884Z,101119.30
2017-05-30T23:03:57.212Z,101122.02
2017-05-30T23:06:23.532Z,101136.38
2017-05-30T23:08:49.876Z,101132.78
2017-05-30T23:11:16.213Z,101142.09
2017-05-30T23:13:42.553Z,101140.02
2017-05-30T23:16:08.930Z,101141.86
2017-05-30T23:18:35.273Z,101136.91
2017-05-30T23:21:01.606Z,101134.00
2017-05-30T23:23:27.910Z,101139.84
2017-05-30T23:25:54.255Z,101150.64
2017-05-30T23:28:20.633Z,101148.29
2017-05-30T23:30:46.935Z,101159.16
2017-05-30T23:33:13.268Z,101155.96
2017-05-30T23:35:39.667Z,101162.36
2017-05-30T23:38:05.970Z,101161.10
2017-05-30T23:40:32.335Z,101163.84
2017-05-30T23:42:58.744Z,101154.38
2017-05-30T23:45:25.171Z,101161.52
2017-05-30T23:47:51.805Z,101167.61
2017-05-30T23:50:18.185Z,101165.78
2017-05-30T23:52:44.591Z,101163.93
2017-05-30T23:55:10.996Z,101164.38
2017-05-30T23:57:37.638Z,101163.91
